Terminal Aerodrome Forecast
Issued by NWS Kansas City/Pleasant Hill, MO

Home | Current Version | Previous Version | Text Only | Print | Product List | Glossary On
Versions: 1 2 3 4 5 6 7 8 9 10 11 12 13 14 15 16 17 18 19 20 21 22 23
000
FTUS43 KEAX 150100 AAA
TAFMCI
TAF AMD
KMCI 150110Z 1501/1524 12013KT P6SM BKN030 OVC140
     FM150300 16012KT 4SM -RA BR SCT008 OVC030
     FM150800 16009KT 6SM BR VCSH BKN025
     FM151500 21013KT 6SM -SHRA BR SCT025 BKN035
     FM152100 30015G25KT P6SM SCT035=

USA.gov is the U.S. government's official web portal to all federal, state and local government web resources and services.